sensor_id;sensor_type;location;lat;lon;timestamp;temperature;humidity
62259;DHT22;48241;48.824;10.102;2023-03-31T00:02:19;10.40;92.30
62259;DHT22;48241;48.824;10.102;2023-03-31T00:04:47;10.70;91.60
62259;DHT22;48241;48.824;10.102;2023-03-31T00:07:17;11.00;90.40
62259;DHT22;48241;48.824;10.102;2023-03-31T00:09:47;10.80;91.10
62259;DHT22;48241;48.824;10.102;2023-03-31T00:12:13;10.70;91.10
62259;DHT22;48241;48.824;10.102;2023-03-31T00:14:40;10.60;90.40
62259;DHT22;48241;48.824;10.102;2023-03-31T00:17:06;10.60;90.80
62259;DHT22;48241;48.824;10.102;2023-03-31T00:19:32;10.30;91.70
62259;DHT22;48241;48.824;10.102;2023-03-31T00:21:58;10.40;92.20
62259;DHT22;48241;48.824;10.102;2023-03-31T00:24:27;10.40;91.30
62259;DHT22;48241;48.824;10.102;2023-03-31T00:27:05;10.50;91.50
62259;DHT22;48241;48.824;10.102;2023-03-31T00:29:31;10.40;92.10
62259;DHT22;48241;48.824;10.102;2023-03-31T00:31:58;10.20;92.70
62259;DHT22;48241;48.824;10.102;2023-03-31T00:34:24;10.30;92.10
62259;DHT22;48241;48.824;10.102;2023-03-31T00:36:50;10.50;92.00
62259;DHT22;48241;48.824;10.102;2023-03-31T00:39:21;10.70;91.60
62259;DHT22;48241;48.824;10.102;2023-03-31T00:41:47;11.00;91.00
62259;DHT22;48241;48.824;10.102;2023-03-31T00:47:05;10.90;92.10
62259;DHT22;48241;48.824;10.102;2023-03-31T00:52:14;11.00;92.00
62259;DHT22;48241;48.824;10.102;2023-03-31T00:54:44;11.10;91.60
62259;DHT22;48241;48.824;10.102;2023-03-31T00:57:11;11.00;92.10
62259;DHT22;48241;48.824;10.102;2023-03-31T00:59:41;11.00;92.00
62259;DHT22;48241;48.824;10.102;2023-03-31T01:02:07;11.10;91.90
62259;DHT22;48241;48.824;10.102;2023-03-31T01:04:40;11.40;91.50
62259;DHT22;48241;48.824;10.102;2023-03-31T01:09:43;11.50;91.20
62259;DHT22;48241;48.824;10.102;2023-03-31T01:12:12;11.30;91.70
62259;DHT22;48241;48.824;10.102;2023-03-31T01:14:39;11.20;91.30
62259;DHT22;48241;48.824;10.102;2023-03-31T01:17:05;11.30;91.10
62259;DHT22;48241;48.824;10.102;2023-03-31T01:22:37;11.30;90.90
62259;DHT22;48241;48.824;10.102;2023-03-31T01:28:12;11.20;91.80
62259;DHT22;48241;48.824;10.102;2023-03-31T01:50:25;11.50;90.40
62259;DHT22;48241;48.824;10.102;2023-03-31T01:53:04;11.80;89.60
62259;DHT22;48241;48.824;10.102;2023-03-31T01:55:40;11.70;90.50
62259;DHT22;48241;48.824;10.102;2023-03-31T02:00:40;11.70;90.10
62259;DHT22;48241;48.824;10.102;2023-03-31T02:03:10;11.60;87.90
62259;DHT22;48241;48.824;10.102;2023-03-31T02:05:51;11.80;89.20
62259;DHT22;48241;48.824;10.102;2023-03-31T02:08:30;11.70;87.90
62259;DHT22;48241;48.824;10.102;2023-03-31T02:10:58;11.80;86.90
62259;DHT22;48241;48.824;10.102;2023-03-31T02:13:26;11.80;87.20
62259;DHT22;48241;48.824;10.102;2023-03-31T02:16:03;11.90;86.80
62259;DHT22;48241;48.824;10.102;2023-03-31T02:18:31;12.00;86.90
62259;DHT22;48241;48.824;10.102;2023-03-31T02:20:58;11.90;89.60
62259;DHT22;48241;48.824;10.102;2023-03-31T02:23:27;12.10;87.70
62259;DHT22;48241;48.824;10.102;2023-03-31T02:26:10;12.20;87.80
62259;DHT22;48241;48.824;10.102;2023-03-31T02:28:36;12.00;90.10
62259;DHT22;48241;48.824;10.102;2023-03-31T02:33:55;11.90;85.80
62259;DHT22;48241;48.824;10.102;2023-03-31T02:36:20;11.80;90.30
62259;DHT22;48241;48.824;10.102;2023-03-31T02:39:05;11.80;91.00
62259;DHT22;48241;48.824;10.102;2023-03-31T02:41:33;11.70;89.80
62259;DHT22;48241;48.824;10.102;2023-03-31T02:43:58;11.60;88.50
62259;DHT22;48241;48.824;10.102;2023-03-31T02:46:25;11.80;89.30
62259;DHT22;48241;48.824;10.102;2023-03-31T02:48:54;11.90;91.10
62259;DHT22;48241;48.824;10.102;2023-03-31T02:51:38;11.90;91.20
62259;DHT22;48241;48.824;10.102;2023-03-31T02:56:59;12.00;92.60
62259;DHT22;48241;48.824;10.102;2023-03-31T03:05:17;11.60;93.50
62259;DHT22;48241;48.824;10.102;2023-03-31T03:13:27;11.50;93.80
62259;DHT22;48241;48.824;10.102;2023-03-31T03:15:59;11.60;94.30
62259;DHT22;48241;48.824;10.102;2023-03-31T03:18:27;11.60;93.60
62259;DHT22;48241;48.824;10.102;2023-03-31T03:20:52;11.50;93.00
62259;DHT22;48241;48.824;10.102;2023-03-31T03:23:18;11.50;95.00
62259;DHT22;48241;48.824;10.102;2023-03-31T03:25:44;11.50;94.70
62259;DHT22;48241;48.824;10.102;2023-03-31T03:28:10;11.40;94.30
62259;DHT22;48241;48.824;10.102;2023-03-31T03:30:36;11.40;93.70
62259;DHT22;48241;48.824;10.102;2023-03-31T03:33:02;11.60;93.70
62259;DHT22;48241;48.824;10.102;2023-03-31T03:35:30;11.50;94.10
62259;DHT22;48241;48.824;10.102;2023-03-31T03:37:56;11.50;93.40
62259;DHT22;48241;48.824;10.102;2023-03-31T03:40:21;11.20;94.60
62259;DHT22;48241;48.824;10.102;2023-03-31T03:42:47;11.20;96.10
62259;DHT22;48241;48.824;10.102;2023-03-31T03:45:12;10.90;97.30
62259;DHT22;48241;48.824;10.102;2023-03-31T03:47:38;10.80;98.20
62259;DHT22;48241;48.824;10.102;2023-03-31T03:50:04;11.10;98.50
62259;DHT22;48241;48.824;10.102;2023-03-31T03:52:30;11.20;97.50
62259;DHT22;48241;48.824;10.102;2023-03-31T03:54:55;11.20;98.00
62259;DHT22;48241;48.824;10.102;2023-03-31T03:57:21;11.30;97.80
62259;DHT22;48241;48.824;10.102;2023-03-31T03:59:46;11.30;97.40
62259;DHT22;48241;48.824;10.102;2023-03-31T04:02:12;11.40;97.40
62259;DHT22;48241;48.824;10.102;2023-03-31T04:04:38;11.30;97.40
62259;DHT22;48241;48.824;10.102;2023-03-31T04:07:04;11.30;97.30
62259;DHT22;48241;48.824;10.102;2023-03-31T04:09:29;11.20;97.20
62259;DHT22;48241;48.824;10.102;2023-03-31T04:11:55;11.20;97.00
62259;DHT22;48241;48.824;10.102;2023-03-31T04:14:20;10.90;97.20
62259;DHT22;48241;48.824;10.102;2023-03-31T04:16:46;10.90;97.80
62259;DHT22;48241;48.824;10.102;2023-03-31T04:19:13;10.90;96.70
62259;DHT22;48241;48.824;10.102;2023-03-31T04:21:41;10.60;97.20
62259;DHT22;48241;48.824;10.102;2023-03-31T04:24:09;10.70;96.90
62259;DHT22;48241;48.824;10.102;2023-03-31T04:26:37;10.20;97.90
62259;DHT22;48241;48.824;10.102;2023-03-31T04:29:13;10.10;98.90
62259;DHT22;48241;48.824;10.102;2023-03-31T04:31:41;10.10;98.20
62259;DHT22;48241;48.824;10.102;2023-03-31T04:34:12;10.10;97.70
62259;DHT22;48241;48.824;10.102;2023-03-31T04:36:43;10.40;97.70
62259;DHT22;48241;48.824;10.102;2023-03-31T04:39:18;10.40;96.40
62259;DHT22;48241;48.824;10.102;2023-03-31T04:41:55;10.20;97.10
62259;DHT22;48241;48.824;10.102;2023-03-31T04:44:21;10.10;97.20
62259;DHT22;48241;48.824;10.102;2023-03-31T04:46:47;10.00;97.70
62259;DHT22;48241;48.824;10.102;2023-03-31T04:49:12;10.00;98.40
62259;DHT22;48241;48.824;10.102;2023-03-31T04:51:38;10.10;97.40
62259;DHT22;48241;48.824;10.102;2023-03-31T04:54:03;10.10;97.40
62259;DHT22;48241;48.824;10.102;2023-03-31T04:56:29;10.10;97.40
62259;DHT22;48241;48.824;10.102;2023-03-31T04:58:55;10.10;97.50
62259;DHT22;48241;48.824;10.102;2023-03-31T05:01:20;9.90;98.10
62259;DHT22;48241;48.824;10.102;2023-03-31T05:03:46;9.90;98.50
62259;DHT22;48241;48.824;10.102;2023-03-31T05:06:13;9.60;98.90
62259;DHT22;48241;48.824;10.102;2023-03-31T05:08:39;9.60;99.10
62259;DHT22;48241;48.824;10.102;2023-03-31T05:11:05;9.50;99.70
62259;DHT22;48241;48.824;10.102;2023-03-31T05:13:31;9.80;99.00
62259;DHT22;48241;48.824;10.102;2023-03-31T05:15:57;10.00;98.40
62259;DHT22;48241;48.824;10.102;2023-03-31T05:18:22;10.20;98.30
62259;DHT22;48241;48.824;10.102;2023-03-31T05:20:48;10.40;97.80
62259;DHT22;48241;48.824;10.102;2023-03-31T05:23:14;10.50;97.50
62259;DHT22;48241;48.824;10.102;2023-03-31T05:25:40;10.30;97.90
62259;DHT22;48241;48.824;10.102;2023-03-31T05:28:07;10.20;98.50
62259;DHT22;48241;48.824;10.102;2023-03-31T05:30:34;10.30;98.60
62259;DHT22;48241;48.824;10.102;2023-03-31T05:33:00;10.00;99.30
62259;DHT22;48241;48.824;10.102;2023-03-31T05:35:25;10.20;99.00
62259;DHT22;48241;48.824;10.102;2023-03-31T05:37:51;10.10;99.50
62259;DHT22;48241;48.824;10.102;2023-03-31T05:40:17;10.00;99.80
62259;DHT22;48241;48.824;10.102;2023-03-31T05:42:42;10.00;99.90
62259;DHT22;48241;48.824;10.102;2023-03-31T05:45:08;10.00;99.90
62259;DHT22;48241;48.824;10.102;2023-03-31T05:47:34;10.10;99.90
62259;DHT22;48241;48.824;10.102;2023-03-31T05:49:59;10.40;99.10
62259;DHT22;48241;48.824;10.102;2023-03-31T05:52:25;10.40;99.30
62259;DHT22;48241;48.824;10.102;2023-03-31T05:54:50;10.60;99.20
62259;DHT22;48241;48.824;10.102;2023-03-31T05:57:16;10.10;99.90
62259;DHT22;48241;48.824;10.102;2023-03-31T05:59:41;9.90;99.90
62259;DHT22;48241;48.824;10.102;2023-03-31T06:02:09;10.00;99.90
62259;DHT22;48241;48.824;10.102;2023-03-31T06:04:36;9.80;99.90
62259;DHT22;48241;48.824;10.102;2023-03-31T06:07:03;9.90;99.90
62259;DHT22;48241;48.824;10.102;2023-03-31T06:09:30;10.20;99.90
62259;DHT22;48241;48.824;10.102;2023-03-31T06:11:55;10.00;99.90
62259;DHT22;48241;48.824;10.102;2023-03-31T06:14:21;10.10;99.90
62259;DHT22;48241;48.824;10.102;2023-03-31T06:16:47;10.20;99.90
62259;DHT22;48241;48.824;10.102;2023-03-31T06:19:12;10.30;99.90
62259;DHT22;48241;48.824;10.102;2023-03-31T06:21:38;10.30;99.90
62259;DHT22;48241;48.824;10.102;2023-03-31T06:24:03;10.20;99.90
62259;DHT22;48241;48.824;10.102;2023-03-31T06:26:29;10.20;99.90
62259;DHT22;48241;48.824;10.102;2023-03-31T06:28:55;10.10;99.90
62259;DHT22;48241;48.824;10.102;2023-03-31T06:31:23;9.90;99.90
62259;DHT22;48241;48.824;10.102;2023-03-31T06:33:49;10.00;99.90
62259;DHT22;48241;48.824;10.102;2023-03-31T06:36:17;10.10;99.90
62259;DHT22;48241;48.824;10.102;2023-03-31T06:38:43;10.20;99.90
62259;DHT22;48241;48.824;10.102;2023-03-31T06:41:12;10.30;99.90
62259;DHT22;48241;48.824;10.102;2023-03-31T06:43:38;10.20;99.90
62259;DHT22;48241;48.824;10.102;2023-03-31T06:46:04;10.10;99.90
62259;DHT22;48241;48.824;10.102;2023-03-31T06:48:30;9.90;99.90
62259;DHT22;48241;48.824;10.102;2023-03-31T06:50:59;9.80;99.90
62259;DHT22;48241;48.824;10.102;2023-03-31T06:53:25;9.90;99.90
62259;DHT22;48241;48.824;10.102;2023-03-31T06:55:50;10.10;99.90
62259;DHT22;48241;48.824;10.102;2023-03-31T06:58:16;10.20;99.90
62259;DHT22;48241;48.824;10.102;2023-03-31T07:00:42;10.50;99.90
62259;DHT22;48241;48.824;10.102;2023-03-31T07:03:10;10.50;99.90
62259;DHT22;48241;48.824;10.102;2023-03-31T07:05:35;10.30;99.90
62259;DHT22;48241;48.824;10.102;2023-03-31T07:08:01;10.40;99.90
62259;DHT22;48241;48.824;10.102;2023-03-31T07:10:28;10.10;99.90
62259;DHT22;48241;48.824;10.102;2023-03-31T07:12:54;9.80;99.90
62259;DHT22;48241;48.824;10.102;2023-03-31T07:15:20;10.00;99.90
62259;DHT22;48241;48.824;10.102;2023-03-31T07:17:46;9.80;99.90
62259;DHT22;48241;48.824;10.102;2023-03-31T07:20:16;9.80;99.90
62259;DHT22;48241;48.824;10.102;2023-03-31T07:22:43;9.60;99.90
62259;DHT22;48241;48.824;10.102;2023-03-31T07:25:10;9.80;99.90
62259;DHT22;48241;48.824;10.102;2023-03-31T07:27:36;10.10;99.90
62259;DHT22;48241;48.824;10.102;2023-03-31T07:30:15;10.10;99.90
62259;DHT22;48241;48.824;10.102;2023-03-31T07:32:41;10.40;99.90
62259;DHT22;48241;48.824;10.102;2023-03-31T07:35:08;10.50;99.90
62259;DHT22;48241;48.824;10.102;2023-03-31T07:37:38;10.50;99.90
62259;DHT22;48241;48.824;10.102;2023-03-31T07:40:06;10.40;99.90
62259;DHT22;48241;48.824;10.102;2023-03-31T07:42:33;10.70;99.90
62259;DHT22;48241;48.824;10.102;2023-03-31T07:44:59;11.00;99.90
62259;DHT22;48241;48.824;10.102;2023-03-31T07:47:25;11.20;99.90
62259;DHT22;48241;48.824;10.102;2023-03-31T07:49:50;11.10;99.90
62259;DHT22;48241;48.824;10.102;2023-03-31T07:52:16;10.90;99.90
62259;DHT22;48241;48.824;10.102;2023-03-31T07:54:44;10.60;99.90
62259;DHT22;48241;48.824;10.102;2023-03-31T07:57:10;10.70;99.90
62259;DHT22;48241;48.824;10.102;2023-03-31T07:59:35;10.90;99.90
62259;DHT22;48241;48.824;10.102;2023-03-31T08:02:01;11.30;99.90
62259;DHT22;48241;48.824;10.102;2023-03-31T08:04:26;11.30;99.90
62259;DHT22;48241;48.824;10.102;2023-03-31T08:06:52;11.40;99.20
62259;DHT22;48241;48.824;10.102;2023-03-31T08:09:18;11.40;98.10
62259;DHT22;48241;48.824;10.102;2023-03-31T08:11:44;11.40;99.60
62259;DHT22;48241;48.824;10.102;2023-03-31T08:14:09;12.00;96.60
62259;DHT22;48241;48.824;10.102;2023-03-31T08:16:35;12.10;95.30
62259;DHT22;48241;48.824;10.102;2023-03-31T08:19:01;12.70;94.90
62259;DHT22;48241;48.824;10.102;2023-03-31T08:21:29;13.20;92.60
62259;DHT22;48241;48.824;10.102;2023-03-31T08:23:55;13.50;91.10
62259;DHT22;48241;48.824;10.102;2023-03-31T08:26:21;13.30;91.60
62259;DHT22;48241;48.824;10.102;2023-03-31T08:28:48;13.20;92.40
62259;DHT22;48241;48.824;10.102;2023-03-31T08:31:15;13.60;92.80
62259;DHT22;48241;48.824;10.102;2023-03-31T08:33:42;14.60;87.20
62259;DHT22;48241;48.824;10.102;2023-03-31T08:36:08;15.10;85.60
62259;DHT22;48241;48.824;10.102;2023-03-31T08:38:39;15.10;87.40
62259;DHT22;48241;48.824;10.102;2023-03-31T08:46:53;17.80;76.60
62259;DHT22;48241;48.824;10.102;2023-03-31T08:49:22;18.90;76.80
62259;DHT22;48241;48.824;10.102;2023-03-31T08:51:56;19.20;70.10
62259;DHT22;48241;48.824;10.102;2023-03-31T08:54:31;18.50;70.60
62259;DHT22;48241;48.824;10.102;2023-03-31T08:56:57;19.50;65.30
62259;DHT22;48241;48.824;10.102;2023-03-31T08:59:32;19.50;67.90
62259;DHT22;48241;48.824;10.102;2023-03-31T09:07:14;22.40;59.20
62259;DHT22;48241;48.824;10.102;2023-03-31T09:12:39;22.30;58.30
62259;DHT22;48241;48.824;10.102;2023-03-31T09:18:12;23.10;57.90
62259;DHT22;48241;48.824;10.102;2023-03-31T09:20:43;22.70;54.70
62259;DHT22;48241;48.824;10.102;2023-03-31T09:23:39;22.40;56.70
62259;DHT22;48241;48.824;10.102;2023-03-31T09:29:16;22.10;55.10
62259;DHT22;48241;48.824;10.102;2023-03-31T09:31:43;21.40;57.60
62259;DHT22;48241;48.824;10.102;2023-03-31T09:34:14;21.90;56.50
62259;DHT22;48241;48.824;10.102;2023-03-31T09:36:40;22.40;55.70
62259;DHT22;48241;48.824;10.102;2023-03-31T09:39:11;22.80;55.60
62259;DHT22;48241;48.824;10.102;2023-03-31T09:41:37;22.60;53.60
62259;DHT22;48241;48.824;10.102;2023-03-31T09:44:04;22.40;53.80
62259;DHT22;48241;48.824;10.102;2023-03-31T09:46:33;22.40;54.30
62259;DHT22;48241;48.824;10.102;2023-03-31T09:49:14;22.10;52.80
62259;DHT22;48241;48.824;10.102;2023-03-31T09:51:45;22.10;52.80
62259;DHT22;48241;48.824;10.102;2023-03-31T09:54:23;22.40;52.90
62259;DHT22;48241;48.824;10.102;2023-03-31T09:56:51;22.90;53.20
62259;DHT22;48241;48.824;10.102;2023-03-31T10:01:46;21.40;53.30
62259;DHT22;48241;48.824;10.102;2023-03-31T10:04:24;21.70;52.70
62259;DHT22;48241;48.824;10.102;2023-03-31T10:06:53;21.50;52.90
62259;DHT22;48241;48.824;10.102;2023-03-31T10:09:20;21.50;54.30
62259;DHT22;48241;48.824;10.102;2023-03-31T10:12:02;21.40;53.40
62259;DHT22;48241;48.824;10.102;2023-03-31T10:14:39;20.30;54.90
62259;DHT22;48241;48.824;10.102;2023-03-31T10:17:05;19.80;55.80
62259;DHT22;48241;48.824;10.102;2023-03-31T10:19:34;19.40;57.00
62259;DHT22;48241;48.824;10.102;2023-03-31T10:22:08;19.00;57.20
62259;DHT22;48241;48.824;10.102;2023-03-31T10:24:40;18.60;58.10
62259;DHT22;48241;48.824;10.102;2023-03-31T10:29:41;18.50;60.20
62259;DHT22;48241;48.824;10.102;2023-03-31T10:32:21;18.20;61.20
62259;DHT22;48241;48.824;10.102;2023-03-31T10:34:48;18.30;62.10
62259;DHT22;48241;48.824;10.102;2023-03-31T10:37:19;18.30;60.60
62259;DHT22;48241;48.824;10.102;2023-03-31T10:39:47;18.10;61.30
62259;DHT22;48241;48.824;10.102;2023-03-31T10:42:22;18.00;63.90
62259;DHT22;48241;48.824;10.102;2023-03-31T10:44:48;17.90;67.70
62259;DHT22;48241;48.824;10.102;2023-03-31T10:47:19;17.70;68.10
62259;DHT22;48241;48.824;10.102;2023-03-31T10:49:48;17.00;68.20
62259;DHT22;48241;48.824;10.102;2023-03-31T10:52:23;16.60;65.70
62259;DHT22;48241;48.824;10.102;2023-03-31T10:54:53;16.20;65.40
62259;DHT22;48241;48.824;10.102;2023-03-31T11:03:12;15.80;67.70
62259;DHT22;48241;48.824;10.102;2023-03-31T11:08:28;15.80;69.10
62259;DHT22;48241;48.824;10.102;2023-03-31T11:16:39;15.80;65.10
62259;DHT22;48241;48.824;10.102;2023-03-31T11:22:30;15.90;64.00
62259;DHT22;48241;48.824;10.102;2023-03-31T11:25:15;16.10;62.90
62259;DHT22;48241;48.824;10.102;2023-03-31T11:30:45;16.30;63.70
62259;DHT22;48241;48.824;10.102;2023-03-31T11:38:46;17.10;62.40
62259;DHT22;48241;48.824;10.102;2023-03-31T11:41:43;17.20;59.60
62259;DHT22;48241;48.824;10.102;2023-03-31T11:44:14;17.60;58.50
62259;DHT22;48241;48.824;10.102;2023-03-31T11:51:56;17.20;57.20
62259;DHT22;48241;48.824;10.102;2023-03-31T11:54:39;16.90;58.50
62259;DHT22;48241;48.824;10.102;2023-03-31T11:57:23;17.30;58.60
62259;DHT22;48241;48.824;10.102;2023-03-31T11:59:58;17.60;57.90
62259;DHT22;48241;48.824;10.102;2023-03-31T12:05:30;17.60;59.60
62259;DHT22;48241;48.824;10.102;2023-03-31T12:08:16;15.50;72.30
62259;DHT22;48241;48.824;10.102;2023-03-31T12:11:23;12.40;87.70
62259;DHT22;48241;48.824;10.102;2023-03-31T12:14:24;10.50;94.50
62259;DHT22;48241;48.824;10.102;2023-03-31T12:17:14;9.80;98.80
62259;DHT22;48241;48.824;10.102;2023-03-31T12:20:00;9.20;98.70
62259;DHT22;48241;48.824;10.102;2023-03-31T12:22:58;8.90;99.90
62259;DHT22;48241;48.824;10.102;2023-03-31T12:25:24;8.90;99.20
62259;DHT22;48241;48.824;10.102;2023-03-31T12:27:53;9.00;98.70
62259;DHT22;48241;48.824;10.102;2023-03-31T12:30:32;9.00;98.30
62259;DHT22;48241;48.824;10.102;2023-03-31T12:33:24;9.40;98.90
62259;DHT22;48241;48.824;10.102;2023-03-31T12:55:48;13.40;94.00
62259;DHT22;48241;48.824;10.102;2023-03-31T13:01:07;13.40;90.50
62259;DHT22;48241;48.824;10.102;2023-03-31T13:06:01;13.60;92.10
62259;DHT22;48241;48.824;10.102;2023-03-31T13:09:05;13.80;93.40
62259;DHT22;48241;48.824;10.102;2023-03-31T13:11:37;13.60;88.00
62259;DHT22;48241;48.824;10.102;2023-03-31T13:14:38;13.50;90.50
62259;DHT22;48241;48.824;10.102;2023-03-31T13:19:45;13.50;89.60
62259;DHT22;48241;48.824;10.102;2023-03-31T13:22:31;13.50;87.90
62259;DHT22;48241;48.824;10.102;2023-03-31T13:27:57;13.80;87.30
62259;DHT22;48241;48.824;10.102;2023-03-31T13:33:14;13.70;84.20
62259;DHT22;48241;48.824;10.102;2023-03-31T13:35:50;13.60;83.00
62259;DHT22;48241;48.824;10.102;2023-03-31T13:38:40;13.70;81.10
62259;DHT22;48241;48.824;10.102;2023-03-31T13:41:27;13.80;82.90
62259;DHT22;48241;48.824;10.102;2023-03-31T13:46:53;13.90;79.00
62259;DHT22;48241;48.824;10.102;2023-03-31T13:52:12;14.40;81.00
62259;DHT22;48241;48.824;10.102;2023-03-31T14:00:29;14.40;78.10
62259;DHT22;48241;48.824;10.102;2023-03-31T14:03:21;14.00;77.70
62259;DHT22;48241;48.824;10.102;2023-03-31T14:06:18;14.00;79.40
62259;DHT22;48241;48.824;10.102;2023-03-31T14:08:59;14.00;79.10
62259;DHT22;48241;48.824;10.102;2023-03-31T14:11:28;13.90;80.00
62259;DHT22;48241;48.824;10.102;2023-03-31T14:14:11;13.80;83.60
62259;DHT22;48241;48.824;10.102;2023-03-31T14:16:40;13.50;86.70
62259;DHT22;48241;48.824;10.102;2023-03-31T14:22:25;13.00;90.50
62259;DHT22;48241;48.824;10.102;2023-03-31T14:33:33;13.70;90.80
62259;DHT22;48241;48.824;10.102;2023-03-31T14:38:52;12.90;91.00
62259;DHT22;48241;48.824;10.102;2023-03-31T14:41:20;12.30;91.70
62259;DHT22;48241;48.824;10.102;2023-03-31T14:43:55;12.10;93.10
62259;DHT22;48241;48.824;10.102;2023-03-31T14:46:21;11.80;93.00
62259;DHT22;48241;48.824;10.102;2023-03-31T14:48:49;11.60;91.90
62259;DHT22;48241;48.824;10.102;2023-03-31T14:51:18;11.60;92.30
62259;DHT22;48241;48.824;10.102;2023-03-31T14:54:00;11.40;91.80
62259;DHT22;48241;48.824;10.102;2023-03-31T14:56:33;11.40;91.90
62259;DHT22;48241;48.824;10.102;2023-03-31T14:59:02;11.40;90.20
62259;DHT22;48241;48.824;10.102;2023-03-31T15:01:31;11.40;90.70
62259;DHT22;48241;48.824;10.102;2023-03-31T15:04:10;11.40;89.70
62259;DHT22;48241;48.824;10.102;2023-03-31T15:06:36;12.20;86.80
62259;DHT22;48241;48.824;10.102;2023-03-31T15:09:04;12.80;84.60
62259;DHT22;48241;48.824;10.102;2023-03-31T15:11:30;13.40;80.90
62259;DHT22;48241;48.824;10.102;2023-03-31T15:13:57;13.50;79.40
62259;DHT22;48241;48.824;10.102;2023-03-31T15:16:43;13.20;77.40
62259;DHT22;48241;48.824;10.102;2023-03-31T15:19:23;13.20;77.10
62259;DHT22;48241;48.824;10.102;2023-03-31T15:22:11;13.00;77.30
62259;DHT22;48241;48.824;10.102;2023-03-31T15:24:38;13.20;79.50
62259;DHT22;48241;48.824;10.102;2023-03-31T15:27:08;13.50;80.90
62259;DHT22;48241;48.824;10.102;2023-03-31T15:29:37;13.90;79.00
62259;DHT22;48241;48.824;10.102;2023-03-31T15:32:11;13.70;76.60
62259;DHT22;48241;48.824;10.102;2023-03-31T15:34:37;13.70;77.30
62259;DHT22;48241;48.824;10.102;2023-03-31T15:37:06;13.60;78.00
62259;DHT22;48241;48.824;10.102;2023-03-31T15:39:32;13.60;78.10
62259;DHT22;48241;48.824;10.102;2023-03-31T15:42:06;13.50;77.30
62259;DHT22;48241;48.824;10.102;2023-03-31T15:44:43;13.70;77.60
62259;DHT22;48241;48.824;10.102;2023-03-31T15:47:26;13.70;77.20
62259;DHT22;48241;48.824;10.102;2023-03-31T15:52:37;13.50;77.60
62259;DHT22;48241;48.824;10.102;2023-03-31T16:00:50;13.60;75.00
62259;DHT22;48241;48.824;10.102;2023-03-31T16:03:27;13.70;76.90
62259;DHT22;48241;48.824;10.102;2023-03-31T16:06:08;13.70;75.60
62259;DHT22;48241;48.824;10.102;2023-03-31T16:08:45;13.50;75.80
62259;DHT22;48241;48.824;10.102;2023-03-31T16:11:16;13.40;75.90
62259;DHT22;48241;48.824;10.102;2023-03-31T16:13:47;13.20;75.90
62259;DHT22;48241;48.824;10.102;2023-03-31T16:16:16;13.00;75.70
62259;DHT22;48241;48.824;10.102;2023-03-31T16:18:48;13.00;76.30
62259;DHT22;48241;48.824;10.102;2023-03-31T16:21:20;13.00;74.90
62259;DHT22;48241;48.824;10.102;2023-03-31T16:23:51;12.80;76.00
62259;DHT22;48241;48.824;10.102;2023-03-31T16:26:22;12.60;76.40
62259;DHT22;48241;48.824;10.102;2023-03-31T16:28:52;12.10;77.80
62259;DHT22;48241;48.824;10.102;2023-03-31T16:31:38;12.10;77.70
62259;DHT22;48241;48.824;10.102;2023-03-31T16:34:06;12.20;78.50
62259;DHT22;48241;48.824;10.102;2023-03-31T16:36:32;12.20;77.80
62259;DHT22;48241;48.824;10.102;2023-03-31T16:38:59;11.80;79.60
62259;DHT22;48241;48.824;10.102;2023-03-31T16:41:27;12.10;79.30
62259;DHT22;48241;48.824;10.102;2023-03-31T16:43:53;12.20;79.00
62259;DHT22;48241;48.824;10.102;2023-03-31T16:46:20;12.00;79.50
62259;DHT22;48241;48.824;10.102;2023-03-31T16:48:46;12.30;80.00
62259;DHT22;48241;48.824;10.102;2023-03-31T16:51:11;12.40;79.90
62259;DHT22;48241;48.824;10.102;2023-03-31T16:53:37;12.50;78.70
62259;DHT22;48241;48.824;10.102;2023-03-31T16:56:04;12.30;79.70
62259;DHT22;48241;48.824;10.102;2023-03-31T16:58:32;12.10;79.90
62259;DHT22;48241;48.824;10.102;2023-03-31T17:00:58;12.20;80.50
62259;DHT22;48241;48.824;10.102;2023-03-31T17:03:25;12.50;79.10
62259;DHT22;48241;48.824;10.102;2023-03-31T17:05:52;12.10;80.50
62259;DHT22;48241;48.824;10.102;2023-03-31T17:08:20;12.30;79.70
62259;DHT22;48241;48.824;10.102;2023-03-31T17:10:52;12.30;79.70
62259;DHT22;48241;48.824;10.102;2023-03-31T17:13:18;12.20;80.90
62259;DHT22;48241;48.824;10.102;2023-03-31T17:19:06;12.10;79.80
62259;DHT22;48241;48.824;10.102;2023-03-31T17:21:31;12.00;80.80
62259;DHT22;48241;48.824;10.102;2023-03-31T17:23:57;11.90;80.70
62259;DHT22;48241;48.824;10.102;2023-03-31T17:26:23;11.70;81.60
62259;DHT22;48241;48.824;10.102;2023-03-31T17:28:48;11.70;82.50
62259;DHT22;48241;48.824;10.102;2023-03-31T17:31:16;11.70;83.20
62259;DHT22;48241;48.824;10.102;2023-03-31T17:33:42;11.60;83.20
62259;DHT22;48241;48.824;10.102;2023-03-31T17:36:08;11.60;83.50
62259;DHT22;48241;48.824;10.102;2023-03-31T17:38:34;11.50;84.30
62259;DHT22;48241;48.824;10.102;2023-03-31T17:41:04;11.70;83.80
62259;DHT22;48241;48.824;10.102;2023-03-31T17:43:29;11.70;83.10
62259;DHT22;48241;48.824;10.102;2023-03-31T17:46:03;11.60;82.40
62259;DHT22;48241;48.824;10.102;2023-03-31T17:48:29;11.60;83.70
62259;DHT22;48241;48.824;10.102;2023-03-31T17:50:55;11.60;83.30
62259;DHT22;48241;48.824;10.102;2023-03-31T17:53:20;11.50;84.30
62259;DHT22;48241;48.824;10.102;2023-03-31T17:55:46;11.30;84.10
62259;DHT22;48241;48.824;10.102;2023-03-31T17:58:12;11.60;83.80
62259;DHT22;48241;48.824;10.102;2023-03-31T18:00:38;11.50;83.30
62259;DHT22;48241;48.824;10.102;2023-03-31T18:03:04;11.60;81.90
62259;DHT22;48241;48.824;10.102;2023-03-31T18:05:30;11.40;82.90
62259;DHT22;48241;48.824;10.102;2023-03-31T18:07:58;11.60;81.70
62259;DHT22;48241;48.824;10.102;2023-03-31T18:10:23;11.60;80.40
62259;DHT22;48241;48.824;10.102;2023-03-31T18:12:49;11.80;79.70
62259;DHT22;48241;48.824;10.102;2023-03-31T18:15:15;11.50;79.60
62259;DHT22;48241;48.824;10.102;2023-03-31T18:17:41;11.70;79.40
62259;DHT22;48241;48.824;10.102;2023-03-31T18:20:07;11.70;78.90
62259;DHT22;48241;48.824;10.102;2023-03-31T18:22:34;11.90;78.10
62259;DHT22;48241;48.824;10.102;2023-03-31T18:25:00;12.00;78.50
62259;DHT22;48241;48.824;10.102;2023-03-31T18:27:25;12.30;78.20
62259;DHT22;48241;48.824;10.102;2023-03-31T18:29:51;12.30;78.80
62259;DHT22;48241;48.824;10.102;2023-03-31T18:32:17;12.40;77.30
62259;DHT22;48241;48.824;10.102;2023-03-31T18:34:42;11.90;78.20
62259;DHT22;48241;48.824;10.102;2023-03-31T18:37:08;11.90;79.10
62259;DHT22;48241;48.824;10.102;2023-03-31T18:39:34;12.20;80.90